sensor_id;sensor_type;location;lat;lon;timestamp;temperature;humidity
68691;DHT22;55675;49.588;8.640;2022-08-14T00:00:48;25.30;46.90
68691;DHT22;55675;49.588;8.640;2022-08-14T00:03:18;25.20;47.10
68691;DHT22;55675;49.588;8.640;2022-08-14T00:05:44;25.20;47.20
68691;DHT22;55675;49.588;8.640;2022-08-14T00:08:09;25.10;47.30
68691;DHT22;55675;49.588;8.640;2022-08-14T00:10:35;25.20;47.50
68691;DHT22;55675;49.588;8.640;2022-08-14T00:13:01;25.10;47.50
68691;DHT22;55675;49.588;8.640;2022-08-14T00:15:30;25.10;47.70
68691;DHT22;55675;49.588;8.640;2022-08-14T00:17:57;25.10;47.80
68691;DHT22;55675;49.588;8.640;2022-08-14T00:20:29;25.10;48.00
68691;DHT22;55675;49.588;8.640;2022-08-14T00:22:56;25.10;48.30
68691;DHT22;55675;49.588;8.640;2022-08-14T00:25:22;25.10;48.40
68691;DHT22;55675;49.588;8.640;2022-08-14T00:27:48;25.00;48.40
68691;DHT22;55675;49.588;8.640;2022-08-14T00:30:14;25.00;48.50
68691;DHT22;55675;49.588;8.640;2022-08-14T00:32:41;25.00;48.80
68691;DHT22;55675;49.588;8.640;2022-08-14T00:35:08;25.00;49.10
68691;DHT22;55675;49.588;8.640;2022-08-14T00:37:37;25.00;49.40
68691;DHT22;55675;49.588;8.640;2022-08-14T00:40:03;24.90;49.40
68691;DHT22;55675;49.588;8.640;2022-08-14T00:42:29;24.90;49.80
68691;DHT22;55675;49.588;8.640;2022-08-14T00:44:55;24.90;49.90
68691;DHT22;55675;49.588;8.640;2022-08-14T00:47:20;24.90;49.90
68691;DHT22;55675;49.588;8.640;2022-08-14T00:49:50;24.80;50.10
68691;DHT22;55675;49.588;8.640;2022-08-14T00:52:18;24.90;50.20
68691;DHT22;55675;49.588;8.640;2022-08-14T00:54:46;24.90;50.40
68691;DHT22;55675;49.588;8.640;2022-08-14T00:57:18;24.80;50.40
68691;DHT22;55675;49.588;8.640;2022-08-14T00:59:44;24.80;50.60
68691;DHT22;55675;49.588;8.640;2022-08-14T01:02:11;24.80;50.50
68691;DHT22;55675;49.588;8.640;2022-08-14T01:04:39;24.80;50.90
68691;DHT22;55675;49.588;8.640;2022-08-14T01:07:05;24.80;50.90
68691;DHT22;55675;49.588;8.640;2022-08-14T01:09:32;24.70;50.90
68691;DHT22;55675;49.588;8.640;2022-08-14T01:11:59;24.70;51.10
68691;DHT22;55675;49.588;8.640;2022-08-14T01:14:25;24.70;51.10
68691;DHT22;55675;49.588;8.640;2022-08-14T01:16:50;24.70;51.00
68691;DHT22;55675;49.588;8.640;2022-08-14T01:19:16;24.70;51.00
68691;DHT22;55675;49.588;8.640;2022-08-14T01:22:00;24.70;51.10
68691;DHT22;55675;49.588;8.640;2022-08-14T01:24:26;24.70;51.20
68691;DHT22;55675;49.588;8.640;2022-08-14T01:26:51;24.70;51.30
68691;DHT22;55675;49.588;8.640;2022-08-14T01:29:18;24.70;51.20
68691;DHT22;55675;49.588;8.640;2022-08-14T01:31:45;24.70;51.30
68691;DHT22;55675;49.588;8.640;2022-08-14T01:34:12;24.70;51.70
68691;DHT22;55675;49.588;8.640;2022-08-14T01:36:38;24.60;51.50
68691;DHT22;55675;49.588;8.640;2022-08-14T01:39:06;24.60;51.70
68691;DHT22;55675;49.588;8.640;2022-08-14T01:41:33;24.60;51.80
68691;DHT22;55675;49.588;8.640;2022-08-14T01:44:04;24.60;52.00
68691;DHT22;55675;49.588;8.640;2022-08-14T01:46:35;24.60;52.20
68691;DHT22;55675;49.588;8.640;2022-08-14T01:49:04;24.50;52.20
68691;DHT22;55675;49.588;8.640;2022-08-14T01:51:30;24.50;52.20
68691;DHT22;55675;49.588;8.640;2022-08-14T01:54:10;24.50;52.40
68691;DHT22;55675;49.588;8.640;2022-08-14T01:56:37;24.50;52.40
68691;DHT22;55675;49.588;8.640;2022-08-14T01:59:23;24.50;52.40
68691;DHT22;55675;49.588;8.640;2022-08-14T02:01:55;24.40;52.50
68691;DHT22;55675;49.588;8.640;2022-08-14T02:04:23;24.40;52.90
68691;DHT22;55675;49.588;8.640;2022-08-14T02:06:50;24.30;53.00
68691;DHT22;55675;49.588;8.640;2022-08-14T02:09:18;24.20;53.20
68691;DHT22;55675;49.588;8.640;2022-08-14T02:11:44;24.20;53.10
68691;DHT22;55675;49.588;8.640;2022-08-14T02:14:12;24.20;53.30
68691;DHT22;55675;49.588;8.640;2022-08-14T02:16:47;24.10;53.70
68691;DHT22;55675;49.588;8.640;2022-08-14T02:19:22;24.00;53.80
68691;DHT22;55675;49.588;8.640;2022-08-14T02:21:50;24.00;53.80
68691;DHT22;55675;49.588;8.640;2022-08-14T02:24:20;24.00;54.00
68691;DHT22;55675;49.588;8.640;2022-08-14T02:26:48;23.90;54.00
68691;DHT22;55675;49.588;8.640;2022-08-14T02:29:19;23.80;54.20
68691;DHT22;55675;49.588;8.640;2022-08-14T02:31:48;23.80;54.30
68691;DHT22;55675;49.588;8.640;2022-08-14T02:34:17;23.80;54.40
68691;DHT22;55675;49.588;8.640;2022-08-14T02:36:44;23.70;54.40
68691;DHT22;55675;49.588;8.640;2022-08-14T02:39:12;23.70;54.60
68691;DHT22;55675;49.588;8.640;2022-08-14T02:41:38;23.70;54.70
68691;DHT22;55675;49.588;8.640;2022-08-14T02:44:06;23.60;55.10
68691;DHT22;55675;49.588;8.640;2022-08-14T02:46:33;23.60;55.20
68691;DHT22;55675;49.588;8.640;2022-08-14T02:48:59;23.50;55.30
68691;DHT22;55675;49.588;8.640;2022-08-14T02:51:26;23.50;55.40
68691;DHT22;55675;49.588;8.640;2022-08-14T02:53:54;23.50;55.40
68691;DHT22;55675;49.588;8.640;2022-08-14T02:56:20;23.40;55.60
68691;DHT22;55675;49.588;8.640;2022-08-14T02:58:50;23.40;55.70
68691;DHT22;55675;49.588;8.640;2022-08-14T03:01:19;23.40;55.60
68691;DHT22;55675;49.588;8.640;2022-08-14T03:03:46;23.50;55.50
68691;DHT22;55675;49.588;8.640;2022-08-14T03:06:13;23.50;55.60
68691;DHT22;55675;49.588;8.640;2022-08-14T03:08:41;23.50;55.30
68691;DHT22;55675;49.588;8.640;2022-08-14T03:11:09;23.50;55.40
68691;DHT22;55675;49.588;8.640;2022-08-14T03:13:37;23.50;55.60
68691;DHT22;55675;49.588;8.640;2022-08-14T03:16:06;23.50;56.10
68691;DHT22;55675;49.588;8.640;2022-08-14T03:18:32;23.50;56.00
68691;DHT22;55675;49.588;8.640;2022-08-14T03:21:04;23.40;55.80
68691;DHT22;55675;49.588;8.640;2022-08-14T03:23:32;23.40;55.90
68691;DHT22;55675;49.588;8.640;2022-08-14T03:25:59;23.30;56.00
68691;DHT22;55675;49.588;8.640;2022-08-14T03:28:25;23.30;56.20
68691;DHT22;55675;49.588;8.640;2022-08-14T03:30:54;23.20;56.30
68691;DHT22;55675;49.588;8.640;2022-08-14T03:33:19;23.10;56.50
68691;DHT22;55675;49.588;8.640;2022-08-14T03:35:45;22.90;57.00
68691;DHT22;55675;49.588;8.640;2022-08-14T03:38:11;22.80;57.20
68691;DHT22;55675;49.588;8.640;2022-08-14T03:40:38;22.80;57.40
68691;DHT22;55675;49.588;8.640;2022-08-14T03:43:05;22.70;57.30
68691;DHT22;55675;49.588;8.640;2022-08-14T03:45:33;22.70;57.70
68691;DHT22;55675;49.588;8.640;2022-08-14T03:48:03;22.60;58.40
68691;DHT22;55675;49.588;8.640;2022-08-14T03:50:30;22.50;58.40
68691;DHT22;55675;49.588;8.640;2022-08-14T03:52:57;22.50;58.80
68691;DHT22;55675;49.588;8.640;2022-08-14T03:55:24;22.40;58.50
68691;DHT22;55675;49.588;8.640;2022-08-14T03:57:49;22.40;58.80
68691;DHT22;55675;49.588;8.640;2022-08-14T04:00:15;22.40;58.80
68691;DHT22;55675;49.588;8.640;2022-08-14T04:02:41;22.30;59.00
68691;DHT22;55675;49.588;8.640;2022-08-14T04:05:09;22.30;59.00
68691;DHT22;55675;49.588;8.640;2022-08-14T04:07:35;22.30;59.30
68691;DHT22;55675;49.588;8.640;2022-08-14T04:10:04;22.30;59.30
68691;DHT22;55675;49.588;8.640;2022-08-14T04:12:30;22.20;59.40
68691;DHT22;55675;49.588;8.640;2022-08-14T04:14:56;22.30;59.40
68691;DHT22;55675;49.588;8.640;2022-08-14T04:17:22;22.20;59.40
68691;DHT22;55675;49.588;8.640;2022-08-14T04:19:48;22.10;59.50
68691;DHT22;55675;49.588;8.640;2022-08-14T04:22:14;22.20;59.70
68691;DHT22;55675;49.588;8.640;2022-08-14T04:24:40;22.10;59.80
68691;DHT22;55675;49.588;8.640;2022-08-14T04:27:07;22.10;59.80
68691;DHT22;55675;49.588;8.640;2022-08-14T04:29:39;22.10;59.80
68691;DHT22;55675;49.588;8.640;2022-08-14T04:32:07;22.00;58.50
68691;DHT22;55675;49.588;8.640;2022-08-14T04:34:37;21.80;58.70
68691;DHT22;55675;49.588;8.640;2022-08-14T04:37:07;21.70;59.80
68691;DHT22;55675;49.588;8.640;2022-08-14T04:39:52;21.60;59.60
68691;DHT22;55675;49.588;8.640;2022-08-14T04:42:37;21.70;59.90
68691;DHT22;55675;49.588;8.640;2022-08-14T04:45:23;21.60;59.10
68691;DHT22;55675;49.588;8.640;2022-08-14T04:47:49;21.60;59.30
68691;DHT22;55675;49.588;8.640;2022-08-14T04:50:34;21.70;59.50
68691;DHT22;55675;49.588;8.640;2022-08-14T04:53:01;21.70;59.50
68691;DHT22;55675;49.588;8.640;2022-08-14T04:55:27;21.80;59.00
68691;DHT22;55675;49.588;8.640;2022-08-14T04:57:52;21.80;58.30
68691;DHT22;55675;49.588;8.640;2022-08-14T05:00:18;21.80;58.20
68691;DHT22;55675;49.588;8.640;2022-08-14T05:02:44;21.80;58.30
68691;DHT22;55675;49.588;8.640;2022-08-14T05:05:10;21.80;58.40
68691;DHT22;55675;49.588;8.640;2022-08-14T05:07:35;21.80;57.90
68691;DHT22;55675;49.588;8.640;2022-08-14T05:10:02;21.60;57.60
68691;DHT22;55675;49.588;8.640;2022-08-14T05:12:28;21.50;57.90
68691;DHT22;55675;49.588;8.640;2022-08-14T05:14:54;21.30;58.10
68691;DHT22;55675;49.588;8.640;2022-08-14T05:17:19;21.30;58.30
68691;DHT22;55675;49.588;8.640;2022-08-14T05:19:49;21.40;58.50
68691;DHT22;55675;49.588;8.640;2022-08-14T05:22:15;21.60;58.40
68691;DHT22;55675;49.588;8.640;2022-08-14T05:24:41;21.80;58.30
68691;DHT22;55675;49.588;8.640;2022-08-14T05:27:06;21.90;58.20
68691;DHT22;55675;49.588;8.640;2022-08-14T05:29:33;22.00;58.10
68691;DHT22;55675;49.588;8.640;2022-08-14T05:31:59;22.10;58.00
68691;DHT22;55675;49.588;8.640;2022-08-14T05:34:31;22.30;57.90
68691;DHT22;55675;49.588;8.640;2022-08-14T05:36:58;22.40;57.70
68691;DHT22;55675;49.588;8.640;2022-08-14T05:39:24;22.60;57.60
68691;DHT22;55675;49.588;8.640;2022-08-14T05:41:50;22.70;57.30
68691;DHT22;55675;49.588;8.640;2022-08-14T05:44:16;22.70;57.10
68691;DHT22;55675;49.588;8.640;2022-08-14T05:46:41;22.70;57.30
68691;DHT22;55675;49.588;8.640;2022-08-14T05:49:07;22.60;57.40
68691;DHT22;55675;49.588;8.640;2022-08-14T05:51:32;22.60;57.30
68691;DHT22;55675;49.588;8.640;2022-08-14T05:53:58;22.70;57.50
68691;DHT22;55675;49.588;8.640;2022-08-14T05:56:24;22.80;57.60
68691;DHT22;55675;49.588;8.640;2022-08-14T05:58:50;22.90;57.50
68691;DHT22;55675;49.588;8.640;2022-08-14T06:01:16;23.10;57.60
68691;DHT22;55675;49.588;8.640;2022-08-14T06:03:41;23.10;57.40
68691;DHT22;55675;49.588;8.640;2022-08-14T06:06:07;23.20;57.30
68691;DHT22;55675;49.588;8.640;2022-08-14T06:08:32;23.40;57.30
68691;DHT22;55675;49.588;8.640;2022-08-14T06:11:00;23.50;57.10
68691;DHT22;55675;49.588;8.640;2022-08-14T06:13:39;23.70;57.00
68691;DHT22;55675;49.588;8.640;2022-08-14T06:16:05;23.80;57.00
68691;DHT22;55675;49.588;8.640;2022-08-14T06:18:31;23.90;56.80
68691;DHT22;55675;49.588;8.640;2022-08-14T06:20:57;23.90;56.70
68691;DHT22;55675;49.588;8.640;2022-08-14T06:23:23;24.10;56.40
68691;DHT22;55675;49.588;8.640;2022-08-14T06:25:48;24.20;56.20
68691;DHT22;55675;49.588;8.640;2022-08-14T06:28:18;24.30;56.10
68691;DHT22;55675;49.588;8.640;2022-08-14T06:30:45;24.50;56.20
68691;DHT22;55675;49.588;8.640;2022-08-14T06:33:11;24.60;56.00
68691;DHT22;55675;49.588;8.640;2022-08-14T06:35:37;24.70;55.40
68691;DHT22;55675;49.588;8.640;2022-08-14T06:38:03;24.80;55.00
68691;DHT22;55675;49.588;8.640;2022-08-14T06:40:34;24.90;54.30
68691;DHT22;55675;49.588;8.640;2022-08-14T06:43:05;25.00;54.00
68691;DHT22;55675;49.588;8.640;2022-08-14T06:45:33;25.20;53.60
68691;DHT22;55675;49.588;8.640;2022-08-14T06:47:58;25.30;53.30
68691;DHT22;55675;49.588;8.640;2022-08-14T06:50:26;25.40;53.00
68691;DHT22;55675;49.588;8.640;2022-08-14T06:52:52;25.50;52.80
68691;DHT22;55675;49.588;8.640;2022-08-14T06:55:18;25.50;52.40
68691;DHT22;55675;49.588;8.640;2022-08-14T06:57:46;25.60;51.90
68691;DHT22;55675;49.588;8.640;2022-08-14T07:00:18;25.70;51.70
68691;DHT22;55675;49.588;8.640;2022-08-14T07:02:44;25.70;51.10
68691;DHT22;55675;49.588;8.640;2022-08-14T07:05:28;25.80;50.90
68691;DHT22;55675;49.588;8.640;2022-08-14T07:08:12;25.80;50.60
68691;DHT22;55675;49.588;8.640;2022-08-14T07:10:38;25.90;50.90
68691;DHT22;55675;49.588;8.640;2022-08-14T07:13:04;26.00;50.80
68691;DHT22;55675;49.588;8.640;2022-08-14T07:15:33;26.10;50.80
68691;DHT22;55675;49.588;8.640;2022-08-14T07:17:59;26.20;50.20
68691;DHT22;55675;49.588;8.640;2022-08-14T07:20:25;26.30;50.00
68691;DHT22;55675;49.588;8.640;2022-08-14T07:22:52;26.40;49.60
68691;DHT22;55675;49.588;8.640;2022-08-14T07:25:25;26.50;49.00
68691;DHT22;55675;49.588;8.640;2022-08-14T07:27:52;26.60;48.60
68691;DHT22;55675;49.588;8.640;2022-08-14T07:30:17;26.70;48.50
68691;DHT22;55675;49.588;8.640;2022-08-14T07:32:43;26.80;47.90
68691;DHT22;55675;49.588;8.640;2022-08-14T07:35:09;26.80;47.60
68691;DHT22;55675;49.588;8.640;2022-08-14T07:37:34;26.90;47.70
68691;DHT22;55675;49.588;8.640;2022-08-14T07:40:02;27.00;46.90
68691;DHT22;55675;49.588;8.640;2022-08-14T07:42:28;27.10;46.60
68691;DHT22;55675;49.588;8.640;2022-08-14T07:44:53;27.10;46.70
68691;DHT22;55675;49.588;8.640;2022-08-14T07:47:19;27.20;46.40
68691;DHT22;55675;49.588;8.640;2022-08-14T07:49:59;27.30;46.10
68691;DHT22;55675;49.588;8.640;2022-08-14T07:52:26;27.50;46.00
68691;DHT22;55675;49.588;8.640;2022-08-14T07:54:53;27.60;45.20
68691;DHT22;55675;49.588;8.640;2022-08-14T07:57:18;27.70;44.50
68691;DHT22;55675;49.588;8.640;2022-08-14T07:59:45;27.80;44.30
68691;DHT22;55675;49.588;8.640;2022-08-14T08:02:12;27.90;44.40
68691;DHT22;55675;49.588;8.640;2022-08-14T08:04:43;28.00;44.30
68691;DHT22;55675;49.588;8.640;2022-08-14T08:07:10;28.20;44.20
68691;DHT22;55675;49.588;8.640;2022-08-14T08:09:36;28.30;43.50
68691;DHT22;55675;49.588;8.640;2022-08-14T08:12:06;28.40;43.20
68691;DHT22;55675;49.588;8.640;2022-08-14T08:14:33;28.50;43.30
68691;DHT22;55675;49.588;8.640;2022-08-14T08:16:59;28.60;43.00
68691;DHT22;55675;49.588;8.640;2022-08-14T08:19:25;28.70;42.60
68691;DHT22;55675;49.588;8.640;2022-08-14T08:21:51;28.70;41.40
68691;DHT22;55675;49.588;8.640;2022-08-14T08:24:19;28.70;41.50
68691;DHT22;55675;49.588;8.640;2022-08-14T08:26:44;28.70;41.50
68691;DHT22;55675;49.588;8.640;2022-08-14T08:29:18;28.70;41.30
68691;DHT22;55675;49.588;8.640;2022-08-14T08:31:48;28.70;41.20
68691;DHT22;55675;49.588;8.640;2022-08-14T08:34:15;28.70;41.50
68691;DHT22;55675;49.588;8.640;2022-08-14T08:36:42;28.90;41.70
68691;DHT22;55675;49.588;8.640;2022-08-14T08:39:08;29.00;40.60
68691;DHT22;55675;49.588;8.640;2022-08-14T08:41:45;29.00;40.10
68691;DHT22;55675;49.588;8.640;2022-08-14T08:44:12;29.00;40.70
68691;DHT22;55675;49.588;8.640;2022-08-14T08:46:37;29.10;39.90
68691;DHT22;55675;49.588;8.640;2022-08-14T08:49:04;29.20;39.80
68691;DHT22;55675;49.588;8.640;2022-08-14T08:51:36;29.30;39.80
68691;DHT22;55675;49.588;8.640;2022-08-14T08:54:08;29.30;38.70
68691;DHT22;55675;49.588;8.640;2022-08-14T08:59:27;29.40;39.50
68691;DHT22;55675;49.588;8.640;2022-08-14T09:02:00;29.40;39.20
68691;DHT22;55675;49.588;8.640;2022-08-14T09:04:29;29.50;38.60
68691;DHT22;55675;49.588;8.640;2022-08-14T09:06:55;29.50;38.20
68691;DHT22;55675;49.588;8.640;2022-08-14T09:09:32;29.50;38.10
68691;DHT22;55675;49.588;8.640;2022-08-14T09:12:00;29.50;38.00
68691;DHT22;55675;49.588;8.640;2022-08-14T09:14:30;29.70;38.30
68691;DHT22;55675;49.588;8.640;2022-08-14T09:16:57;29.80;37.40
68691;DHT22;55675;49.588;8.640;2022-08-14T09:19:23;29.90;37.40
68691;DHT22;55675;49.588;8.640;2022-08-14T09:21:49;30.00;37.00
68691;DHT22;55675;49.588;8.640;2022-08-14T09:24:15;30.10;36.70
68691;DHT22;55675;49.588;8.640;2022-08-14T09:26:43;30.20;36.60
68691;DHT22;55675;49.588;8.640;2022-08-14T09:29:09;30.20;35.80
68691;DHT22;55675;49.588;8.640;2022-08-14T09:31:37;30.20;35.60
68691;DHT22;55675;49.588;8.640;2022-08-14T09:40:21;30.40;35.60
68691;DHT22;55675;49.588;8.640;2022-08-14T09:42:51;30.50;34.70
68691;DHT22;55675;49.588;8.640;2022-08-14T09:45:30;30.60;34.70
68691;DHT22;55675;49.588;8.640;2022-08-14T09:47:57;30.60;35.30
68691;DHT22;55675;49.588;8.640;2022-08-14T09:50:28;30.60;35.60
68691;DHT22;55675;49.588;8.640;2022-08-14T09:53:03;30.70;35.00
68691;DHT22;55675;49.588;8.640;2022-08-14T09:55:30;30.70;34.80
68691;DHT22;55675;49.588;8.640;2022-08-14T10:03:09;31.00;33.90
68691;DHT22;55675;49.588;8.640;2022-08-14T10:05:36;31.00;33.20
68691;DHT22;55675;49.588;8.640;2022-08-14T10:08:03;31.00;32.60
68691;DHT22;55675;49.588;8.640;2022-08-14T10:10:38;31.10;33.40
68691;DHT22;55675;49.588;8.640;2022-08-14T10:13:07;31.20;33.70
68691;DHT22;55675;49.588;8.640;2022-08-14T10:15:44;31.20;33.70
68691;DHT22;55675;49.588;8.640;2022-08-14T10:18:12;31.20;33.10
68691;DHT22;55675;49.588;8.640;2022-08-14T10:20:43;31.20;33.10
68691;DHT22;55675;49.588;8.640;2022-08-14T10:23:18;31.20;33.20
68691;DHT22;55675;49.588;8.640;2022-08-14T10:25:47;31.30;33.40
68691;DHT22;55675;49.588;8.640;2022-08-14T10:28:16;31.40;33.00
68691;DHT22;55675;49.588;8.640;2022-08-14T10:30:43;31.60;32.90
68691;DHT22;55675;49.588;8.640;2022-08-14T10:33:27;31.80;32.10
68691;DHT22;55675;49.588;8.640;2022-08-14T10:35:54;32.10;31.50
68691;DHT22;55675;49.588;8.640;2022-08-14T10:38:31;32.20;31.10
68691;DHT22;55675;49.588;8.640;2022-08-14T10:43:39;32.50;29.50
68691;DHT22;55675;49.588;8.640;2022-08-14T10:46:15;32.60;29.90
68691;DHT22;55675;49.588;8.640;2022-08-14T10:48:57;32.70;28.70
68691;DHT22;55675;49.588;8.640;2022-08-14T10:51:26;32.90;29.60
68691;DHT22;55675;49.588;8.640;2022-08-14T10:53:56;33.10;28.40
68691;DHT22;55675;49.588;8.640;2022-08-14T10:56:30;33.20;27.50
68691;DHT22;55675;49.588;8.640;2022-08-14T10:59:05;33.30;28.20
68691;DHT22;55675;49.588;8.640;2022-08-14T11:01:34;33.40;28.30
68691;DHT22;55675;49.588;8.640;2022-08-14T11:04:01;33.50;28.80
68691;DHT22;55675;49.588;8.640;2022-08-14T11:06:27;33.60;28.20
68691;DHT22;55675;49.588;8.640;2022-08-14T11:08:54;33.70;27.50
68691;DHT22;55675;49.588;8.640;2022-08-14T11:11:21;33.70;27.20
68691;DHT22;55675;49.588;8.640;2022-08-14T11:13:49;33.60;26.40
68691;DHT22;55675;49.588;8.640;2022-08-14T11:16:16;33.50;26.30
68691;DHT22;55675;49.588;8.640;2022-08-14T11:18:44;33.40;26.80
68691;DHT22;55675;49.588;8.640;2022-08-14T11:21:14;33.40;27.50
68691;DHT22;55675;49.588;8.640;2022-08-14T11:23:41;33.60;26.80
68691;DHT22;55675;49.588;8.640;2022-08-14T11:26:08;33.70;26.60
68691;DHT22;55675;49.588;8.640;2022-08-14T11:28:39;33.80;27.40
68691;DHT22;55675;49.588;8.640;2022-08-14T11:31:09;34.00;27.30
68691;DHT22;55675;49.588;8.640;2022-08-14T11:33:35;34.20;27.30
68691;DHT22;55675;49.588;8.640;2022-08-14T11:36:05;34.50;27.10
68691;DHT22;55675;49.588;8.640;2022-08-14T11:38:41;34.60;26.20
68691;DHT22;55675;49.588;8.640;2022-08-14T11:41:07;34.70;26.50
68691;DHT22;55675;49.588;8.640;2022-08-14T11:43:40;34.80;26.00
68691;DHT22;55675;49.588;8.640;2022-08-14T11:46:06;34.90;25.30
68691;DHT22;55675;49.588;8.640;2022-08-14T11:48:32;35.10;25.80
68691;DHT22;55675;49.588;8.640;2022-08-14T11:51:23;35.10;24.70
68691;DHT22;55675;49.588;8.640;2022-08-14T11:54:01;35.20;26.30
68691;DHT22;55675;49.588;8.640;2022-08-14T11:56:36;35.20;26.50
68691;DHT22;55675;49.588;8.640;2022-08-14T11:59:05;35.40;26.90
68691;DHT22;55675;49.588;8.640;2022-08-14T12:01:31;35.40;23.80
68691;DHT22;55675;49.588;8.640;2022-08-14T12:04:08;35.30;24.80
68691;DHT22;55675;49.588;8.640;2022-08-14T12:06:50;35.20;23.80
68691;DHT22;55675;49.588;8.640;2022-08-14T12:09:34;35.10;24.20
68691;DHT22;55675;49.588;8.640;2022-08-14T12:12:21;35.30;25.50
68691;DHT22;55675;49.588;8.640;2022-08-14T12:15:05;35.40;24.10
68691;DHT22;55675;49.588;8.640;2022-08-14T12:17:43;35.40;24.50
68691;DHT22;55675;49.588;8.640;2022-08-14T12:20:10;35.50;23.80
68691;DHT22;55675;49.588;8.640;2022-08-14T12:22:37;35.60;24.10
68691;DHT22;55675;49.588;8.640;2022-08-14T12:25:08;35.70;25.10
68691;DHT22;55675;49.588;8.640;2022-08-14T12:27:42;35.90;24.40
68691;DHT22;55675;49.588;8.640;2022-08-14T12:30:11;36.10;25.30
68691;DHT22;55675;49.588;8.640;2022-08-14T12:32:46;36.30;25.00
68691;DHT22;55675;49.588;8.640;2022-08-14T12:35:12;36.50;24.90
68691;DHT22;55675;49.588;8.640;2022-08-14T12:37:38;36.70;24.50
68691;DHT22;55675;49.588;8.640;2022-08-14T12:40:08;36.90;24.60
68691;DHT22;55675;49.588;8.640;2022-08-14T12:42:35;37.10;25.00
68691;DHT22;55675;49.588;8.640;2022-08-14T12:45:00;37.20;23.70
68691;DHT22;55675;49.588;8.640;2022-08-14T12:47:26;37.30;23.90
68691;DHT22;55675;49.588;8.640;2022-08-14T12:49:55;37.30;23.90
68691;DHT22;55675;49.588;8.640;2022-08-14T12:52:37;37.50;24.50
68691;DHT22;55675;49.588;8.640;2022-08-14T12:55:13;37.60;23.10
68691;DHT22;55675;49.588;8.640;2022-08-14T12:57:41;37.80;23.50
68691;DHT22;55675;49.588;8.640;2022-08-14T13:00:21;38.10;24.00
68691;DHT22;55675;49.588;8.640;2022-08-14T13:02:49;38.30;23.00
68691;DHT22;55675;49.588;8.640;2022-08-14T13:05:17;38.40;23.20
68691;DHT22;55675;49.588;8.640;2022-08-14T13:07:46;38.50;22.30
68691;DHT22;55675;49.588;8.640;2022-08-14T13:10:13;38.60;23.20
68691;DHT22;55675;49.588;8.640;2022-08-14T13:12:40;38.80;23.40
68691;DHT22;55675;49.588;8.640;2022-08-14T13:15:13;39.00;22.10
68691;DHT22;55675;49.588;8.640;2022-08-14T13:17:48;39.20;22.30
68691;DHT22;55675;49.588;8.640;2022-08-14T13:20:16;39.40;21.30
68691;DHT22;55675;49.588;8.640;2022-08-14T13:22:43;39.40;21.00
68691;DHT22;55675;49.588;8.640;2022-08-14T13:25:15;39.50;20.90
68691;DHT22;55675;49.588;8.640;2022-08-14T13:27:44;39.60;21.60
68691;DHT22;55675;49.588;8.640;2022-08-14T13:30:11;39.70;21.40
68691;DHT22;55675;49.588;8.640;2022-08-14T13:32:38;39.70;21.20
68691;DHT22;55675;49.588;8.640;2022-08-14T13:35:08;39.90;21.90
68691;DHT22;55675;49.588;8.640;2022-08-14T13:37:34;40.20;21.60
68691;DHT22;55675;49.588;8.640;2022-08-14T13:40:00;40.60;21.60
68691;DHT22;55675;49.588;8.640;2022-08-14T13:42:27;40.80;21.20
68691;DHT22;55675;49.588;8.640;2022-08-14T13:44:54;41.20;21.10
68691;DHT22;55675;49.588;8.640;2022-08-14T13:47:24;42.10;20.70
68691;DHT22;55675;49.588;8.640;2022-08-14T13:49:54;44.60;18.80
68691;DHT22;55675;49.588;8.640;2022-08-14T13:52:21;47.60;17.40
68691;DHT22;55675;49.588;8.640;2022-08-14T13:54:49;49.50;15.40
68691;DHT22;55675;49.588;8.640;2022-08-14T13:57:18;50.40;15.20
68691;DHT22;55675;49.588;8.640;2022-08-14T13:59:46;49.60;14.40
68691;DHT22;55675;49.588;8.640;2022-08-14T14:02:12;50.10;13.70
68691;DHT22;55675;49.588;8.640;2022-08-14T14:04:41;50.10;14.10
68691;DHT22;55675;49.588;8.640;2022-08-14T14:07:11;50.90;14.10
68691;DHT22;55675;49.588;8.640;2022-08-14T14:09:41;52.30;13.00
68691;DHT22;55675;49.588;8.640;2022-08-14T14:12:07;51.20;13.10
68691;DHT22;55675;49.588;8.640;2022-08-14T14:14:37;49.70;14.60
68691;DHT22;55675;49.588;8.640;2022-08-14T14:17:04;50.10;14.40
68691;DHT22;55675;49.588;8.640;2022-08-14T14:19:33;50.30;13.60
68691;DHT22;55675;49.588;8.640;2022-08-14T14:22:03;50.10;14.00
68691;DHT22;55675;49.588;8.640;2022-08-14T14:24:31;49.80;14.10
68691;DHT22;55675;49.588;8.640;2022-08-14T14:27:01;51.40;14.20
68691;DHT22;55675;49.588;8.640;2022-08-14T14:29:31;52.60;14.00
68691;DHT22;55675;49.588;8.640;2022-08-14T14:31:58;52.40;13.40
68691;DHT22;55675;49.588;8.640;2022-08-14T14:34:25;51.40;13.00
68691;DHT22;55675;49.588;8.640;2022-08-14T14:36:51;50.70;13.70
68691;DHT22;55675;49.588;8.640;2022-08-14T14:39:22;51.00;13.30
68691;DHT22;55675;49.588;8.640;2022-08-14T14:41:53;51.80;13.40
68691;DHT22;55675;49.588;8.640;2022-08-14T14:44:24;51.80;13.20
68691;DHT22;55675;49.588;8.640;2022-08-14T14:46:50;52.40;13.00
68691;DHT22;55675;49.588;8.640;2022-08-14T14:49:17;53.20;13.30
68691;DHT22;55675;49.588;8.640;2022-08-14T14:51:44;53.90;11.80
68691;DHT22;55675;49.588;8.640;2022-08-14T14:54:10;54.80;11.40
68691;DHT22;55675;49.588;8.640;2022-08-14T14:56:38;55.20;11.20
68691;DHT22;55675;49.588;8.640;2022-08-14T14:59:05;53.30;11.30
68691;DHT22;55675;49.588;8.640;2022-08-14T15:01:33;51.10;12.30
68691;DHT22;55675;49.588;8.640;2022-08-14T15:03:59;49.50;13.00
68691;DHT22;55675;49.588;8.640;2022-08-14T15:06:28;49.10;14.00
68691;DHT22;55675;49.588;8.640;2022-08-14T15:08:53;48.40;14.20
68691;DHT22;55675;49.588;8.640;2022-08-14T15:11:19;47.60;13.60
68691;DHT22;55675;49.588;8.640;2022-08-14T15:13:45;46.90;15.60
68691;DHT22;55675;49.588;8.640;2022-08-14T15:16:11;46.20;15.10
68691;DHT22;55675;49.588;8.640;2022-08-14T15:18:37;45.50;16.60
68691;DHT22;55675;49.588;8.640;2022-08-14T15:21:03;44.80;16.60
68691;DHT22;55675;49.588;8.640;2022-08-14T15:23:33;44.10;17.00
68691;DHT22;55675;49.588;8.640;2022-08-14T15:25:59;43.60;16.80
68691;DHT22;55675;49.588;8.640;2022-08-14T15:28:25;43.20;17.30
68691;DHT22;55675;49.588;8.640;2022-08-14T15:30:52;42.90;17.30
68691;DHT22;55675;49.588;8.640;2022-08-14T15:33:19;42.70;17.90
68691;DHT22;55675;49.588;8.640;2022-08-14T15:36:06;42.70;18.00
68691;DHT22;55675;49.588;8.640;2022-08-14T15:38:32;42.60;17.80
68691;DHT22;55675;49.588;8.640;2022-08-14T15:40:58;42.70;17.90
68691;DHT22;55675;49.588;8.640;2022-08-14T15:43:29;43.40;18.30
68691;DHT22;55675;49.588;8.640;2022-08-14T15:46:06;44.50;17.50
68691;DHT22;55675;49.588;8.640;2022-08-14T15:48:33;44.90;17.30
68691;DHT22;55675;49.588;8.640;2022-08-14T15:51:00;45.80;16.20
68691;DHT22;55675;49.588;8.640;2022-08-14T15:53:26;46.90;14.80
68691;DHT22;55675;49.588;8.640;2022-08-14T15:55:53;47.30;14.10